Latest Weather Observations for Hopetoun North

IDW60801

Issued at 4:23 pm WST Friday 21 September 2018 (issued every 10 minutes, with the page automatically refreshed every 10 minutes)

About weather observations | Map of weather stations | Latest weather observations for WA | Other Formats
Station Details ID: 009961 Name: HOPETOUN NORTH Lat: -33.93 Lon: 120.13 Height: 26.0 m
Data from the previous 72 hours. | See also: Recent months at Hopetoun North
Date/Time
WST
Temp
°C
App
Temp
°C
Dew
Point
°C
Rel
Hum
%
Delta-T
°C
Wind Press
QNH
hPa
Press
MSL
hPa
Rain since
9am
mm
Dir  Spd
km/h
Gust
km/h
Spd
kts
Gust
kts
21/04:00pm 17.0 - - - - SE 15 20 8 11 1020.0 1020.0 0.0
21/03:30pm 17.0 - - - - SSE 17 22 9 12 1019.9 1019.9 0.0
21/03:00pm 17.3 - - - - SSE 15 24 8 13 1019.7 1019.6 0.0
21/02:30pm 17.8 - - - - SSE 17 24 9 13 1019.7 1019.6 0.0
21/02:00pm 17.3 - - - - SSE 19 24 10 13 1019.3 1019.2 0.0
21/01:30pm 17.5 - - - - SSE 17 24 9 13 1019.6 1019.5 0.0
21/01:00pm 18.0 - - - - S 17 24 9 13 1019.8 1019.8 0.0
21/12:30pm 18.0 - - - - SSE 17 22 9 12 1019.8 1019.8 0.0
21/12:00pm 18.3 - - - - S 15 20 8 11 1020.2 1020.2 0.0
21/11:30am 18.1 - - - - S 13 19 7 10 1020.6 1020.6 0.0
21/11:00am 18.6 - - - - S 11 17 6 9 1020.7 1020.7 0.0
21/10:30am 17.5 - - - - S 11 17 6 9 1020.9 1020.9 0.0
21/10:00am 17.3 - - - - SSW 11 15 6 8 1021.0 1021.0 0.0
21/09:30am 17.2 - - - - SSW 7 13 4 7 1021.1 1021.1 0.0
21/09:00am 16.3 - - - - N 4 6 2 3 1021.3 1021.3 0.0
21/08:30am 15.6 - - - - NNW 2 7 1 4 1021.3 1021.3 0.0
21/08:00am 15.3 - - - - NNW 6 9 3 5 1021.0 1021.0 0.0
21/07:30am 14.3 - - - - N 7 9 4 5 1020.9 1020.9 0.0
21/07:00am 13.8 - - - - NNW 6 7 3 4 1020.8 1020.8 0.0
21/06:30am 13.2 - - - - NNW 6 7 3 4 1020.6 1020.6 0.0
21/06:00am 13.6 - - - - NW 6 9 3 5 1020.2 1020.2 0.0
21/05:30am 14.1 - - - - W 6 9 3 5 1019.9 1019.9 0.0
21/05:00am 14.0 - - - - W 9 13 5 7 1019.7 1019.6 0.0
21/04:30am 14.1 - - - - W 9 15 5 8 1019.3 1019.2 0.0
21/04:00am 13.9 - - - - WNW 13 19 7 10 1019.2 1019.1 0.0
21/03:30am 13.6 - - - - W 13 19 7 10 1019.0 1018.9 0.0
21/03:00am 13.6 - - - - WSW 15 26 8 14 1019.0 1018.9 0.0
21/02:30am 12.5 - - - - W 15 24 8 13 1019.2 1019.1 0.0
21/02:00am 10.2 - - - - W 6 11 3 6 1018.9 1018.8 0.0
21/01:30am 12.3 - - - - NNW 7 9 4 5 1018.8 1018.7 0.0
21/01:00am 12.3 - - - - NNE 6 9 3 5 1018.7 1018.6 0.0
21/12:30am 12.8 - - - - NW 11 11 6 6 1019.1 1019.0 0.0
21/12:00am 14.3 - - - - N 7 11 4 6 1019.2 1019.1 0.0
 
Date/Time
WST
Temp
°C
App
Temp
°C
Dew
Point
°C
Rel
Hum
%
Delta-T
°C
Wind Press
QNH
hPa
Press
MSL
hPa
Rain since
9am
mm
Dir  Spd
km/h
Gust
km/h
Spd
kts
Gust
kts
20/11:30pm 14.3 - - - - NNW 9 13 5 7 1019.3 1019.2 0.0
20/11:00pm 14.1 - - - - N 6 7 3 4 1019.6 1019.5 0.0
20/10:30pm 14.1 - - - - N 4 9 2 5 1019.8 1019.8 0.0
20/10:00pm 12.8 - - - - N 4 6 2 3 1020.0 1020.0 0.0
20/09:30pm 14.3 - - - - NE 13 17 7 9 1020.1 1020.1 0.0
20/09:00pm 14.6 - - - - NNE 13 15 7 8 1020.1 1020.1 0.0
20/08:30pm 13.4 - - - - NNE 9 11 5 6 1020.1 1020.1 0.0
20/08:00pm 13.8 - - - - NNE 9 11 5 6 1020.1 1020.1 0.0
20/07:30pm 14.2 - - - - N 7 9 4 5 1020.0 1020.0 0.0
20/07:00pm 14.8 - - - - NE 11 13 6 7 1019.7 1019.6 0.0
20/06:30pm 15.4 - - - - ENE 11 13 6 7 1019.4 1019.3 0.0
20/06:00pm 16.5 - - - - ENE 13 15 7 8 1019.2 1019.1 0.0
20/05:30pm 17.3 - - - - E 17 22 9 12 1019.0 1018.9 0.0
20/05:00pm 18.1 - - - - E 17 24 9 13 1018.9 1018.8 0.0
20/04:30pm 18.6 - - - - E 20 28 11 15 1018.8 1018.7 0.0
20/04:00pm 18.9 - - - - ESE 20 28 11 15 1018.9 1018.8 0.0
20/03:30pm 19.3 - - - - ESE 20 30 11 16 1018.9 1018.8 0.0
20/03:00pm 19.3 - - - - ESE 22 30 12 16 1019.1 1019.0 0.0
20/02:30pm 19.9 - - - - SE 19 24 10 13 1019.4 1019.3 0.0
20/02:00pm 20.3 - - - - ESE 20 28 11 15 1019.5 1019.4 0.0
20/01:30pm 20.7 - - - - ESE 20 26 11 14 1020.1 1020.1 0.0
20/01:00pm 20.2 - - - - ESE 20 24 11 13 1020.5 1020.5 0.0
20/12:30pm 20.4 - - - - SE 17 22 9 12 1021.1 1021.1 0.0
20/12:00pm 20.5 - - - - SE 17 22 9 12 1021.7 1021.7 0.0
20/11:30am 20.6 - - - - SSE 15 20 8 11 1022.2 1022.2 0.0
20/11:00am 22.5 - - - - NNE 6 15 3 8 1022.9 1022.9 0.0
20/10:30am 20.1 - - - - NE 6 11 3 6 1023.5 1023.5 0.0
20/10:00am 18.3 - - - - N 4 9 2 5 1024.2 1024.2 0.0
20/09:30am 16.4 - - - - NNE 11 17 6 9 1024.7 1024.7 0.0
20/09:00am 14.4 - - - - NNE 11 17 6 9 1025.1 1025.1 0.0
20/08:30am 11.9 - - - - NE 11 15 6 8 1025.5 1025.5 0.0
20/08:00am 11.0 - - - - NE 11 15 6 8 1025.6 1025.6 0.0
20/07:30am 9.9 - - - - NE 11 19 6 10 1025.7 1025.7 0.0
20/07:00am 9.4 - - - - NNE 13 19 7 10 1025.7 1025.7 0.0
20/06:30am 8.2 - - - - N 9 13 5 7 1025.6 1025.6 0.0
20/06:00am 8.5 - - - - N 9 15 5 8 1025.2 1025.2 0.0
20/05:30am 9.0 - - - - N 7 9 4 5 1024.8 1024.8 0.0
20/05:00am 9.1 - - - - NNE 6 7 3 4 1024.8 1024.8 0.0
20/04:30am 10.0 - - - - NNE 6 7 3 4 1024.6 1024.6 0.0
20/04:00am 10.6 - - - - NNE 6 7 3 4 1024.8 1024.8 0.0
20/03:30am 11.3 - - - - NNE 2 6 1 3 1024.8 1024.8 0.0
20/03:00am 11.7 - - - - NNE 4 7 2 4 1024.9 1024.9 0.0
20/02:30am 11.9 - - - - NNE 4 6 2 3 1025.0 1025.0 0.0
20/02:00am 11.9 - - - - N 6 7 3 4 1025.1 1025.1 0.0
20/01:30am 11.9 - - - - N 2 7 1 4 1025.4 1025.4 0.0
20/01:00am 12.0 - - - - CALM 0 0 0 0 1025.7 1025.7 0.0
20/12:30am 11.9 - - - - N 4 6 2 3 1025.8 1025.8 0.0
20/12:00am 11.6 - - - - NNW 4 6 2 3 1026.1 1026.1 0.0
 
Date/Time
WST
Temp
°C
App
Temp
°C
Dew
Point
°C
Rel
Hum
%
Delta-T
°C
Wind Press
QNH
hPa
Press
MSL
hPa
Rain since
9am
mm
Dir  Spd
km/h
Gust
km/h
Spd
kts
Gust
kts
19/11:30pm 11.9 - - - - CALM 0 0 0 0 1026.1 1026.1 0.0
19/11:00pm 11.8 - - - - CALM 0 2 0 1 1026.3 1026.3 0.0
19/10:30pm 11.8 - - - - NE 6 7 3 4 1026.4 1026.4 0.0
19/10:00pm 11.7 - - - - NE 4 6 2 3 1026.7 1026.7 0.0
19/09:30pm 11.8 - - - - NE 4 6 2 3 1026.7 1026.7 0.0
19/09:00pm 13.1 - - - - SE 6 7 3 4 1026.7 1026.7 0.0
19/08:30pm 12.5 - - - - SE 7 9 4 5 1026.7 1026.7 0.0
19/08:00pm 12.1 - - - - SE 7 9 4 5 1026.7 1026.7 0.0
19/07:30pm 12.3 - - - - SSE 7 11 4 6 1026.4 1026.4 0.0
19/07:00pm 12.6 - - - - SSE 9 11 5 6 1026.2 1026.2 0.0
19/06:30pm 12.8 - - - - SSE 7 11 4 6 1025.8 1025.8 0.0
19/06:00pm 13.4 - - - - SSE 9 13 5 7 1025.5 1025.5 0.0
19/05:30pm 14.4 - - - - S 11 15 6 8 1025.3 1025.3 0.0
19/05:00pm 15.2 - - - - S 15 20 8 11 1025.1 1025.1 0.0
19/04:30pm 15.7 - - - - S 15 20 8 11 1024.9 1024.9 0.0
19/04:00pm 16.1 - - - - S 17 24 9 13 1025.0 1025.0 0.0
19/03:30pm 16.1 - - - - S 17 24 9 13 1025.0 1025.0 0.0
19/03:00pm 16.1 - - - - S 17 24 9 13 1025.0 1025.0 0.0
19/02:30pm 16.4 - - - - SSW 19 28 10 15 1025.3 1025.3 0.0
19/02:00pm 16.6 - - - - SSW 19 26 10 14 1025.4 1025.4 0.0
19/01:30pm 16.4 - - - - SSW 20 26 11 14 1025.8 1025.8 0.0
19/01:00pm 16.8 - - - - SSW 19 24 10 13 1026.2 1026.2 0.0
19/12:30pm 16.9 - - - - SW 19 26 10 14 1026.7 1026.7 0.0
19/12:00pm 16.3 - - - - SW 19 26 10 14 1027.0 1027.0 0.0
19/11:30am 16.3 - - - - SW 19 26 10 14 1027.3 1027.3 0.0
19/11:00am 15.8 - - - - SW 19 26 10 14 1027.6 1027.6 0.0
19/10:30am 15.7 - - - - WSW 20 30 11 16 1027.8 1027.8 0.0
19/10:00am 15.0 - - - - WSW 20 26 11 14 1028.1 1028.1 0.0
19/09:30am 14.4 - - - - WSW 20 28 11 15 1028.2 1028.2 0.0
19/09:00am 13.8 - - - - WSW 17 24 9 13 1028.1 1028.1 0.4
19/08:30am 13.0 - - - - WSW 15 22 8 12 1027.9 1027.9 0.4
19/08:00am 12.4 - - - - W 15 20 8 11 1027.7 1027.7 0.4
19/07:30am 11.3 - - - - W 15 20 8 11 1027.8 1027.8 0.4
19/07:00am 11.3 - - - - WNW 9 15 5 8 1027.4 1027.4 0.4
19/06:30am 11.0 - - - - W 13 19 7 10 1027.1 1027.1 0.4
19/06:00am 11.0 - - - - W 13 22 7 12 1026.9 1026.9 0.4
19/05:30am 11.1 - - - - W 15 20 8 11 1026.6 1026.6 0.4
19/05:00am 10.8 - - - - W 11 19 6 10 1026.4 1026.4 0.4
19/04:30am 10.9 - - - - W 13 19 7 10 1026.3 1026.3 0.4
19/04:00am 10.9 - - - - W 13 17 7 9 1026.1 1026.1 0.4
19/03:30am 10.9 - - - - W 13 19 7 10 1026.2 1026.2 0.2
19/03:00am 10.7 - - - - WNW 9 13 5 7 1025.9 1025.9 0.2
19/02:30am 11.4 - - - - W 13 24 7 13 1025.9 1025.9 0.2
19/02:00am 11.5 - - - - WSW 15 22 8 12 1026.0 1026.0 0.2
19/01:30am 11.3 - - - - W 11 19 6 10 1026.3 1026.3 0.2
19/01:00am 11.5 - - - - W 17 24 9 13 1026.5 1026.5 0.2
19/12:30am 11.7 - - - - WSW 20 33 11 18 1026.7 1026.7 0.2
19/12:00am 11.7 - - - - SW 11 20 6 11 1026.7 1026.7 0.0
 
Date/Time
WST
Temp
°C
App
Temp
°C
Dew
Point
°C
Rel
Hum
%
Delta-T
°C
Wind Press
QNH
hPa
Press
MSL
hPa
Rain since
9am
mm
Dir  Spd
km/h
Gust
km/h
Spd
kts
Gust
kts
18/11:30pm 13.4 - - - - WSW 15 24 8 13 1026.6 1026.6 0.0
18/11:00pm 13.8 - - - - WSW 19 24 10 13 1026.8 1026.8 0.0
18/10:30pm 14.2 - - - - SW 24 37 13 20 1026.8 1026.8 0.0
18/10:00pm 14.0 - - - - SW 28 43 15 23 1026.9 1026.9 0.0
18/09:30pm 14.0 - - - - SW 28 39 15 21 1026.8 1026.8 0.0
18/09:00pm 14.2 - - - - SW 24 35 13 19 1026.8 1026.8 0.0
18/08:30pm 13.8 - - - - SW 26 37 14 20 1026.8 1026.8 0.0
18/08:00pm 13.8 - - - - SW 20 28 11 15 1026.7 1026.7 0.0
18/07:30pm 14.0 - - - - SSW 22 33 12 18 1026.5 1026.5 0.0
18/07:00pm 13.7 - - - - SSW 26 43 14 23 1026.4 1026.4 0.0
18/06:30pm 14.2 - - - - SSW 26 33 14 18 1026.0 1026.0 0.0
18/06:00pm 14.2 - - - - SW 24 35 13 19 1025.9 1025.9 0.0
18/05:30pm 14.1 - - - - SW 22 32 12 17 1025.4 1025.4 0.0
18/05:00pm 14.9 - - - - SSW 24 35 13 19 1025.1 1025.1 0.0
18/04:30pm 15.2 - - - - SSW 28 39 15 21 1024.9 1024.9 0.0

Other Formats:

Comma delimited format used in spreadsheet applications
http://www.bom.gov.au/fwo/IDW60801/IDW60801.95635.axf

JavaScript Object Notation format (JSON) in row-major order
http://www.bom.gov.au/fwo/IDW60801/IDW60801.95635.json